CheckWX is a tool to help pilots better visualize weather data.  It is not intended as a substitute for an official pre-flight weather briefing.

05:18:01 UTC

EGPF METAR
Glasgow International Airport
Glasgow, United Kingdom
Current

28 mins ago

EGPF 200450Z AUTO 19014KT 9999 -RA BKN012/// OVC022/// //////TCU 10/09 Q1005
Observed
Feb-20 @ 04:50 UTC
Wind
  • 190° at 14 KTS
Visibility
10,000+ meters
Flight Rules
MVFR
Conditions
Light Rain
Cloud Levels
  • Broken at 1,200' AGL
  • Overcast at 2,200' AGL
Temperature
10°C / 50°F
Dewpoint
C / 48°F
Humidity
94%
Altimeter
29.68" Hg
Pressure
1004.92 hPa
Previous

58 mins ago

EGPF 200420Z AUTO 19013KT 9999 -RA BKN012/// //////TCU 10/09 Q1005
Observed
Feb-20 @ 04:20 UTC
Wind
  • 190° at 13 KTS
Visibility
10,000+ meters
Flight Rules
MVFR
Conditions
Light Rain
Cloud Levels
  • Broken at 1,200' AGL
Temperature
10°C / 50°F
Dewpoint
C / 48°F
Humidity
94%
Altimeter
29.68" Hg
Pressure
1004.92 hPa
Previous

1 hour ago

EGPF 200350Z AUTO 20014KT 9999 -RA BKN011 OVC016 10/09 Q1005
Observed
Feb-20 @ 03:50 UTC
Wind
  • 200° at 14 KTS
Visibility
10,000+ meters
Flight Rules
MVFR
Conditions
Light Rain
Cloud Levels
  • Broken at 1,100' AGL
  • Overcast at 1,600' AGL
Temperature
10°C / 50°F
Dewpoint
C / 48°F
Humidity
94%
Altimeter
29.68" Hg
Pressure
1004.92 hPa